createdAt,value
2022-11-10T00:00:08.870Z,1.77
2022-11-10T00:02:37.145Z,1.53
2022-11-10T00:05:05.462Z,1.40
2022-11-10T00:07:33.371Z,1.50
2022-11-10T00:10:02.757Z,1.57
2022-11-10T00:12:31.239Z,1.47
2022-11-10T00:15:16.838Z,1.57
2022-11-10T00:17:45.269Z,1.93
2022-11-10T00:20:13.762Z,1.40
2022-11-10T00:22:42.332Z,1.47
2022-11-10T00:25:13.459Z,1.37
2022-11-10T00:27:41.315Z,1.47
2022-11-10T00:30:09.694Z,1.30
2022-11-10T00:32:37.635Z,1.40
2022-11-10T00:35:08.289Z,1.33
2022-11-10T00:37:36.193Z,1.77
2022-11-10T00:40:04.202Z,1.30
2022-11-10T00:42:33.424Z,1.50
2022-11-10T00:45:01.271Z,1.40
2022-11-10T00:47:29.081Z,1.57
2022-11-10T00:49:56.980Z,1.40
2022-11-10T00:52:24.846Z,1.40
2022-11-10T00:54:52.689Z,1.27
2022-11-10T00:57:20.519Z,1.30
2022-11-10T00:59:49.710Z,1.37
2022-11-10T01:02:17.573Z,1.43
2022-11-10T01:04:45.457Z,1.53
2022-11-10T01:07:13.460Z,1.40
2022-11-10T01:09:41.318Z,1.90
2022-11-10T01:12:09.210Z,2.13
2022-11-10T01:14:37.287Z,1.23
2022-11-10T01:17:06.529Z,1.53
2022-11-10T01:19:34.384Z,1.53
2022-11-10T01:22:02.249Z,1.70
2022-11-10T01:24:30.101Z,1.67
2022-11-10T01:26:57.950Z,1.30
2022-11-10T01:29:25.878Z,2.07
2022-11-10T01:31:53.768Z,1.87
2022-11-10T01:34:23.182Z,1.80
2022-11-10T01:36:51.097Z,1.23
2022-11-10T01:39:19.057Z,2.00
2022-11-10T01:41:46.993Z,2.20
2022-11-10T01:44:20.509Z,1.77
2022-11-10T01:46:48.356Z,1.93
2022-11-10T01:49:20.864Z,1.40
2022-11-10T01:51:55.330Z,1.70
2022-11-10T01:54:26.875Z,1.40
2022-11-10T01:56:59.784Z,1.70
2022-11-10T01:59:31.295Z,1.53
2022-11-10T02:02:07.807Z,1.83
2022-11-10T02:04:36.954Z,1.30
2022-11-10T02:07:06.858Z,1.47
2022-11-10T02:09:34.778Z,1.53
2022-11-10T02:12:02.712Z,1.57
2022-11-10T02:14:30.890Z,1.30
2022-11-10T02:16:59.406Z,1.57
2022-11-10T02:19:28.250Z,1.70
2022-11-10T02:21:57.508Z,1.60
2022-11-10T02:24:25.369Z,1.77
2022-11-10T02:26:55.795Z,1.87
2022-11-10T02:29:24.381Z,1.23
2022-11-10T02:31:52.251Z,2.07
2022-11-10T02:34:20.169Z,1.60
2022-11-10T02:36:48.039Z,1.40
2022-11-10T02:39:17.394Z,1.23
2022-11-10T02:41:45.246Z,1.57
2022-11-10T02:44:13.151Z,1.50
2022-11-10T02:46:41.099Z,1.30
2022-11-10T02:49:09.056Z,1.90
2022-11-10T02:51:36.905Z,1.50
2022-11-10T02:54:06.043Z,1.47
2022-11-10T02:56:36.231Z,1.47
2022-11-10T02:59:04.841Z,1.70
2022-11-10T03:01:32.916Z,1.40
2022-11-10T03:04:00.865Z,1.67
2022-11-10T03:06:28.697Z,1.53
2022-11-10T03:08:56.512Z,1.70
2022-11-10T03:11:29.352Z,1.60
2022-11-10T03:14:02.539Z,1.43
2022-11-10T03:16:31.077Z,1.57
2022-11-10T03:18:59.340Z,1.50
2022-11-10T03:21:27.448Z,1.70
2022-11-10T03:23:55.325Z,1.57
2022-11-10T03:26:23.385Z,1.60
2022-11-10T03:28:51.350Z,1.57
2022-11-10T03:31:20.548Z,1.30
2022-11-10T03:33:48.441Z,1.40
2022-11-10T03:36:16.302Z,1.63
2022-11-10T03:38:44.178Z,1.60
2022-11-10T03:41:19.237Z,1.67
2022-11-10T03:43:47.939Z,1.93
2022-11-10T03:46:15.914Z,1.57
2022-11-10T03:48:50.243Z,1.70
2022-11-10T03:51:20.966Z,1.43
2022-11-10T03:53:48.899Z,1.50
2022-11-10T03:56:17.234Z,1.43
2022-11-10T03:58:45.100Z,1.80
2022-11-10T04:01:12.940Z,1.40
2022-11-10T04:03:40.866Z,1.23
2022-11-10T04:06:29.911Z,1.60
2022-11-10T04:09:00.411Z,1.60
2022-11-10T04:11:46.446Z,1.60
2022-11-10T04:14:32.062Z,1.50
2022-11-10T04:17:00.038Z,1.70
2022-11-10T04:19:28.068Z,1.93
2022-11-10T04:21:57.413Z,1.90
2022-11-10T04:24:25.355Z,1.50
2022-11-10T04:26:53.214Z,1.60
2022-11-10T04:29:21.382Z,1.77
2022-11-10T04:31:49.287Z,1.63
2022-11-10T04:34:17.183Z,1.53
2022-11-10T04:36:46.029Z,1.47
2022-11-10T04:39:15.245Z,1.80
2022-11-10T04:41:43.075Z,1.27
2022-11-10T04:44:10.934Z,1.67
2022-11-10T04:46:40.192Z,1.70
2022-11-10T04:49:08.926Z,1.10
2022-11-10T04:51:38.263Z,1.60
2022-11-10T04:54:07.565Z,1.43
2022-11-10T04:56:37.126Z,1.67
2022-11-10T04:59:04.999Z,1.60
2022-11-10T05:01:32.912Z,1.80
2022-11-10T05:04:02.118Z,1.67
2022-11-10T05:06:30.133Z,1.93
2022-11-10T05:08:58.046Z,1.40
2022-11-10T05:11:25.947Z,1.80
2022-11-10T05:13:55.134Z,1.80
2022-11-10T05:16:22.959Z,2.20
2022-11-10T05:18:54.077Z,2.47
2022-11-10T05:21:21.947Z,1.73
2022-11-10T05:23:49.831Z,2.03
2022-11-10T05:26:19.557Z,1.80
2022-11-10T05:28:47.610Z,2.00
2022-11-10T05:31:16.794Z,2.23
2022-11-10T05:33:44.674Z,1.73
2022-11-10T05:36:12.599Z,1.67
2022-11-10T05:38:43.772Z,1.70
2022-11-10T05:41:12.223Z,1.80
2022-11-10T05:43:40.261Z,1.70
2022-11-10T05:46:08.142Z,1.57
2022-11-10T05:48:37.362Z,1.70
2022-11-10T05:51:05.419Z,1.83
2022-11-10T05:53:33.372Z,1.80
2022-11-10T05:56:03.913Z,1.90
2022-11-10T05:58:31.834Z,1.80
2022-11-10T06:00:59.729Z,2.03
2022-11-10T06:03:28.226Z,1.90
2022-11-10T06:05:58.068Z,1.93
2022-11-10T06:08:25.924Z,1.60
2022-11-10T06:10:54.550Z,1.77
2022-11-10T06:13:23.043Z,1.50
2022-11-10T06:15:51.065Z,1.97
2022-11-10T06:18:18.940Z,1.80
2022-11-10T06:20:47.602Z,2.43
2022-11-10T06:23:17.105Z,2.20
2022-11-10T06:25:45.905Z,1.80
2022-11-10T06:28:14.862Z,2.07
2022-11-10T06:30:42.960Z,2.60
2022-11-10T06:33:11.026Z,1.87
2022-11-10T06:35:39.061Z,2.33
2022-11-10T06:38:08.845Z,1.63
2022-11-10T06:40:38.235Z,2.00
2022-11-10T06:43:06.084Z,2.10
2022-11-10T06:45:33.969Z,2.13
2022-11-10T06:48:03.332Z,1.60
2022-11-10T06:50:31.558Z,2.37
2022-11-10T06:53:00.485Z,2.43
2022-11-10T06:55:29.042Z,2.03
2022-11-10T06:57:58.571Z,2.50
2022-11-10T07:00:27.391Z,2.77
2022-11-10T07:03:02.583Z,2.23
2022-11-10T07:05:31.173Z,2.23
2022-11-10T07:08:03.707Z,2.23
2022-11-10T07:10:31.762Z,2.13
2022-11-10T07:13:02.591Z,1.70
2022-11-10T07:15:32.360Z,2.40
2022-11-10T07:18:00.281Z,2.20
2022-11-10T07:20:28.378Z,2.17
2022-11-10T07:23:00.462Z,2.03
2022-11-10T07:25:29.267Z,2.20
2022-11-10T07:27:58.146Z,2.37
2022-11-10T07:30:27.746Z,2.47
2022-11-10T07:33:00.410Z,2.07
2022-11-10T07:35:29.060Z,2.67
2022-11-10T07:37:57.046Z,2.67
2022-11-10T07:40:25.652Z,3.43
2022-11-10T07:42:53.543Z,2.47
2022-11-10T07:45:21.456Z,2.30
2022-11-10T07:47:51.295Z,2.47
2022-11-10T07:50:19.634Z,2.60
2022-11-10T07:52:47.590Z,2.63
2022-11-10T07:55:15.537Z,2.33
2022-11-10T07:57:43.477Z,3.00
2022-11-10T08:00:13.470Z,2.67
2022-11-10T08:02:41.432Z,3.50
2022-11-10T08:05:11.074Z,2.80
2022-11-10T08:07:41.382Z,2.57
2022-11-10T08:10:10.395Z,2.70
2022-11-10T08:12:38.331Z,2.43
2022-11-10T08:15:09.552Z,2.43
2022-11-10T08:17:37.478Z,2.73
2022-11-10T08:20:06.060Z,3.07
2022-11-10T08:22:35.258Z,2.60
2022-11-10T08:25:03.154Z,2.50
2022-11-10T08:27:31.009Z,2.57
2022-11-10T08:29:58.860Z,2.53
2022-11-10T08:32:26.814Z,2.43
2022-11-10T08:34:54.721Z,2.63
2022-11-10T08:37:22.653Z,2.30
2022-11-10T08:39:51.885Z,2.77
2022-11-10T08:42:19.777Z,3.13
2022-11-10T08:44:47.689Z,2.60
2022-11-10T08:47:15.538Z,2.70
2022-11-10T08:49:43.428Z,2.57
2022-11-10T08:52:11.248Z,2.40
2022-11-10T08:54:39.054Z,2.20
2022-11-10T08:57:08.304Z,2.80
2022-11-10T08:59:36.406Z,1.97
2022-11-10T09:02:04.243Z,2.40
2022-11-10T09:04:32.976Z,2.00
2022-11-10T09:07:00.959Z,2.23
2022-11-10T09:09:28.932Z,1.60
2022-11-10T09:11:56.807Z,2.27
2022-11-10T09:14:26.145Z,2.10
2022-11-10T09:16:54.054Z,2.47
2022-11-10T09:19:22.073Z,1.70
2022-11-10T09:21:50.482Z,2.10
2022-11-10T09:24:18.475Z,1.80
2022-11-10T09:26:47.598Z,2.07
2022-11-10T09:29:15.688Z,2.33
2022-11-10T09:31:45.870Z,2.10
2022-11-10T09:34:14.027Z,2.03
2022-11-10T09:36:41.950Z,1.70
2022-11-10T09:39:09.811Z,1.73
2022-11-10T09:41:41.053Z,1.77
2022-11-10T09:44:15.645Z,1.50
2022-11-10T09:46:49.235Z,2.07
2022-11-10T09:49:30.955Z,2.27
2022-11-10T09:52:00.562Z,2.23
2022-11-10T09:54:35.533Z,2.10
2022-11-10T09:57:07.129Z,2.13
2022-11-10T09:59:35.917Z,2.03
2022-11-10T10:02:13.239Z,2.33
2022-11-10T10:04:59.663Z,3.73
2022-11-10T10:07:34.683Z,2.70
2022-11-10T10:10:17.133Z,1.93
2022-11-10T10:13:01.309Z,2.30
2022-11-10T10:15:35.209Z,3.57
2022-11-10T10:18:20.905Z,4.20
2022-11-10T10:21:13.930Z,1.80
2022-11-10T10:24:08.651Z,2.10
2022-11-10T10:26:41.030Z,1.83
2022-11-10T10:29:12.160Z,2.23
2022-11-10T10:31:43.299Z,2.50
2022-11-10T10:34:16.973Z,2.10
2022-11-10T10:36:45.460Z,3.10
2022-11-10T10:39:17.688Z,2.50
2022-11-10T10:41:46.765Z,2.00
2022-11-10T10:44:16.399Z,2.37
2022-11-10T10:46:46.322Z,1.80
2022-11-10T10:49:29.184Z,1.53
2022-11-10T10:52:06.881Z,1.90
2022-11-10T10:54:36.403Z,1.87
2022-11-10T10:57:07.238Z,1.83
2022-11-10T10:59:35.515Z,1.87
2022-11-10T11:02:03.375Z,1.60
2022-11-10T11:04:34.571Z,1.57
2022-11-10T11:07:04.947Z,2.10
2022-11-10T11:09:41.913Z,1.90
2022-11-10T11:12:12.884Z,1.90
2022-11-10T11:14:45.845Z,1.67
2022-11-10T11:17:19.023Z,1.87
2022-11-10T11:19:57.107Z,1.67
2022-11-10T11:22:46.243Z,1.80
2022-11-10T11:25:23.452Z,2.23
2022-11-10T11:28:01.219Z,1.47
2022-11-10T11:30:40.162Z,2.13
2022-11-10T11:33:17.140Z,2.27
2022-11-10T11:35:51.106Z,1.70
2022-11-10T11:38:30.486Z,2.00
2022-11-10T11:41:19.079Z,7.27
2022-11-10T11:44:05.021Z,2.10
2022-11-10T11:46:44.941Z,1.73
2022-11-10T11:49:33.104Z,1.73
2022-11-10T11:52:08.594Z,1.77
2022-11-10T11:54:53.366Z,1.43
2022-11-10T11:57:34.469Z,1.97
2022-11-10T12:00:11.834Z,1.67
2022-11-10T12:03:30.762Z,1.47
2022-11-10T12:06:15.541Z,1.70
2022-11-10T12:08:58.178Z,1.43
2022-11-10T12:11:37.088Z,1.90
2022-11-10T12:14:10.100Z,1.60
2022-11-10T12:16:41.761Z,1.80
2022-11-10T12:19:20.299Z,1.47
2022-11-10T12:21:55.163Z,1.93
2022-11-10T12:24:41.017Z,1.80
2022-11-10T12:27:15.763Z,1.60
2022-11-10T12:29:47.371Z,1.60
2022-11-10T12:32:21.526Z,1.53
2022-11-10T12:34:54.718Z,1.70
2022-11-10T12:37:29.586Z,1.90
2022-11-10T12:40:05.756Z,1.93
2022-11-10T12:42:38.798Z,1.67
2022-11-10T12:45:08.589Z,1.70
2022-11-10T12:47:40.383Z,1.70
2022-11-10T12:50:23.288Z,1.30
2022-11-10T12:52:55.892Z,1.67
2022-11-10T12:55:32.846Z,1.77
2022-11-10T12:58:01.950Z,1.73
2022-11-10T13:00:32.492Z,1.40
2022-11-10T13:03:00.846Z,1.40
2022-11-10T13:05:38.605Z,1.23
2022-11-10T13:08:20.291Z,2.57
2022-11-10T13:10:53.694Z,1.60
2022-11-10T13:13:22.405Z,1.60
2022-11-10T13:15:53.393Z,1.43
2022-11-10T13:18:40.270Z,1.60
2022-11-10T13:21:08.204Z,1.40
2022-11-10T13:24:22.655Z,1.70
2022-11-10T13:26:53.687Z,1.30
2022-11-10T13:29:32.142Z,2.37
2022-11-10T13:32:16.584Z,3.00
2022-11-10T13:34:45.917Z,1.97
2022-11-10T13:37:45.074Z,1.70
2022-11-10T13:40:31.018Z,1.20
2022-11-10T13:43:25.278Z,1.70
2022-11-10T13:46:05.736Z,2.10
2022-11-10T13:48:43.978Z,1.23
2022-11-10T13:51:23.633Z,1.30
2022-11-10T13:54:03.739Z,1.23
2022-11-10T13:57:00.819Z,1.63
2022-11-10T13:59:31.370Z,1.30
2022-11-10T14:02:31.883Z,1.67
2022-11-10T14:05:00.087Z,1.57
2022-11-10T14:07:32.417Z,1.27
2022-11-10T14:10:06.562Z,0.87
2022-11-10T14:12:42.307Z,1.40
2022-11-10T14:15:17.015Z,1.40
2022-11-10T14:17:49.218Z,1.27
2022-11-10T14:20:25.335Z,1.47
2022-11-10T14:22:54.728Z,1.23
2022-11-10T14:25:26.421Z,0.97
2022-11-10T14:27:58.398Z,1.20
2022-11-10T14:30:27.565Z,1.83
2022-11-10T14:33:00.931Z,1.43
2022-11-10T14:35:31.403Z,1.77
2022-11-10T14:38:00.494Z,1.43
2022-11-10T14:40:29.716Z,1.57
2022-11-10T14:42:59.857Z,1.50
2022-11-10T14:45:29.161Z,1.30
2022-11-10T14:47:59.198Z,1.50
2022-11-10T14:50:29.192Z,1.70
2022-11-10T14:53:01.843Z,1.60
2022-11-10T14:55:31.822Z,1.13
2022-11-10T14:58:09.177Z,1.43
2022-11-10T15:00:40.133Z,1.33
2022-11-10T15:03:09.486Z,1.50
2022-11-10T15:05:37.598Z,1.37
2022-11-10T15:08:07.917Z,1.40
2022-11-10T15:10:46.645Z,1.20
2022-11-10T15:13:36.191Z,1.20
2022-11-10T15:16:25.381Z,1.37
2022-11-10T15:18:54.765Z,1.50
2022-11-10T15:21:30.015Z,1.27
2022-11-10T15:24:01.314Z,1.50
2022-11-10T15:26:34.268Z,1.33
2022-11-10T15:29:05.882Z,1.50
2022-11-10T15:31:36.633Z,1.97
2022-11-10T15:34:06.002Z,1.57
2022-11-10T15:36:35.911Z,2.00
2022-11-10T15:39:06.487Z,1.93
2022-11-10T15:41:36.556Z,2.10
2022-11-10T15:44:22.879Z,1.53
2022-11-10T15:46:54.883Z,1.47
2022-11-10T15:49:26.537Z,1.60
2022-11-10T15:51:58.481Z,2.67
2022-11-10T15:54:30.372Z,1.80
2022-11-10T15:56:58.470Z,2.10
2022-11-10T15:59:27.754Z,1.73
2022-11-10T16:01:55.716Z,1.93
2022-11-10T16:04:23.630Z,1.47
2022-11-10T16:06:51.638Z,1.60
2022-11-10T16:09:19.669Z,2.07
2022-11-10T16:11:47.555Z,1.80
2022-11-10T16:14:17.878Z,1.50
2022-11-10T16:16:47.179Z,1.90
2022-11-10T16:19:15.028Z,2.03
2022-11-10T16:21:43.057Z,1.93
2022-11-10T16:24:10.919Z,2.50
2022-11-10T16:26:38.928Z,2.30
2022-11-10T16:29:12.089Z,1.70
2022-11-10T16:31:39.998Z,2.60
2022-11-10T16:34:13.644Z,1.73
2022-11-10T16:36:41.959Z,2.17
2022-11-10T16:39:14.087Z,1.80
2022-11-10T16:41:42.423Z,1.90
2022-11-10T16:44:12.956Z,2.40
2022-11-10T16:46:41.429Z,2.00
2022-11-10T16:49:24.498Z,2.03
2022-11-10T16:51:52.390Z,2.27
2022-11-10T16:54:20.346Z,1.93
2022-11-10T16:56:48.254Z,2.47
2022-11-10T16:59:16.202Z,2.00
2022-11-10T17:01:46.209Z,2.20
2022-11-10T17:04:15.977Z,2.20
2022-11-10T17:06:44.256Z,2.20
2022-11-10T17:09:17.448Z,1.87
2022-11-10T17:11:45.669Z,2.03
2022-11-10T17:14:14.376Z,1.87
2022-11-10T17:16:45.153Z,2.00
2022-11-10T17:19:19.891Z,2.00
2022-11-10T17:21:49.555Z,2.20
2022-11-10T17:24:18.805Z,2.20
2022-11-10T17:26:47.181Z,1.97
2022-11-10T17:29:18.646Z,2.10
2022-11-10T17:31:46.523Z,2.07
2022-11-10T17:34:15.803Z,2.20
2022-11-10T17:36:43.670Z,2.00
2022-11-10T17:39:14.764Z,2.77
2022-11-10T17:41:42.586Z,2.47
2022-11-10T17:44:14.134Z,3.00
2022-11-10T17:46:42.542Z,2.40
2022-11-10T17:49:10.547Z,1.90
2022-11-10T17:51:40.455Z,1.93
2022-11-10T17:54:14.165Z,2.20
2022-11-10T17:56:42.165Z,2.07
2022-11-10T17:59:10.033Z,2.03
2022-11-10T18:01:37.955Z,2.03
2022-11-10T18:04:06.068Z,1.73
2022-11-10T18:06:33.977Z,2.00
2022-11-10T18:09:03.233Z,2.17
2022-11-10T18:11:31.144Z,1.93
2022-11-10T18:13:58.987Z,2.23
2022-11-10T18:16:27.063Z,1.87
2022-11-10T18:18:54.943Z,1.70
2022-11-10T18:21:22.887Z,2.23
2022-11-10T18:23:50.805Z,2.20
2022-11-10T18:26:20.097Z,1.83
2022-11-10T18:28:49.954Z,2.10
2022-11-10T18:31:18.954Z,2.40
2022-11-10T18:33:46.874Z,2.40
2022-11-10T18:36:14.980Z,2.20
2022-11-10T18:38:42.874Z,2.47
2022-11-10T18:41:29.786Z,2.37
2022-11-10T18:43:58.961Z,2.03
2022-11-10T18:46:26.819Z,2.17
2022-11-10T18:48:54.653Z,2.23
2022-11-10T18:51:22.529Z,2.13
2022-11-10T18:53:50.369Z,2.10
2022-11-10T18:56:18.239Z,2.60
2022-11-10T18:58:53.736Z,2.70
2022-11-10T19:01:26.606Z,2.43
2022-11-10T19:03:54.777Z,2.40
2022-11-10T19:06:22.846Z,2.57
2022-11-10T19:08:50.720Z,2.87
2022-11-10T19:11:20.059Z,2.77
2022-11-10T19:13:48.213Z,2.20
2022-11-10T19:16:18.010Z,2.60
2022-11-10T19:18:47.573Z,2.33
2022-11-10T19:21:18.135Z,3.10
2022-11-10T19:23:46.769Z,2.27
2022-11-10T19:26:21.887Z,2.87
2022-11-10T19:28:50.641Z,2.57
2022-11-10T19:31:22.418Z,2.30
2022-11-10T19:33:53.708Z,2.93
2022-11-10T19:36:23.655Z,2.60
2022-11-10T19:38:52.168Z,2.70
2022-11-10T19:41:22.829Z,2.70
2022-11-10T19:43:50.890Z,2.53
2022-11-10T19:46:20.243Z,2.70
2022-11-10T19:48:48.370Z,2.77
2022-11-10T19:51:19.802Z,3.30
2022-11-10T19:53:49.362Z,3.07
2022-11-10T19:56:20.181Z,2.80
2022-11-10T19:58:49.159Z,3.33
2022-11-10T20:01:18.680Z,2.90
2022-11-10T20:03:46.709Z,3.23
2022-11-10T20:06:17.781Z,3.40
2022-11-10T20:08:46.140Z,2.97
2022-11-10T20:11:15.651Z,2.83
2022-11-10T20:13:44.043Z,3.33
2022-11-10T20:16:13.112Z,2.87
2022-11-10T20:18:41.763Z,3.50
2022-11-10T20:21:11.309Z,3.60
2022-11-10T20:23:41.155Z,3.73
2022-11-10T20:26:11.042Z,3.47
2022-11-10T20:28:39.772Z,3.27
2022-11-10T20:31:10.446Z,3.70
2022-11-10T20:33:39.114Z,3.20
2022-11-10T20:36:09.499Z,3.83
2022-11-10T20:38:37.774Z,3.47
2022-11-10T20:41:09.283Z,3.60
2022-11-10T20:43:38.286Z,3.00
2022-11-10T20:46:07.889Z,4.07
2022-11-10T20:48:36.249Z,3.37
2022-11-10T20:51:10.104Z,3.17
2022-11-10T20:53:38.765Z,3.63
2022-11-10T20:56:09.223Z,3.37
2022-11-10T20:58:37.086Z,3.50
2022-11-10T21:01:06.172Z,3.20
2022-11-10T21:03:34.788Z,3.30
2022-11-10T21:06:03.560Z,3.40
2022-11-10T21:08:31.948Z,2.97
2022-11-10T21:11:01.234Z,3.40
2022-11-10T21:13:29.471Z,3.30
2022-11-10T21:15:58.992Z,3.67
2022-11-10T21:18:28.484Z,3.07
2022-11-10T21:20:56.326Z,3.30
2022-11-10T21:23:24.473Z,3.10
2022-11-10T21:25:56.082Z,3.10
2022-11-10T21:28:24.388Z,2.90
2022-11-10T21:30:54.020Z,3.67
2022-11-10T21:33:22.467Z,3.10
2022-11-10T21:35:50.527Z,2.90
2022-11-10T21:38:18.429Z,3.07
2022-11-10T21:40:46.357Z,3.00
2022-11-10T21:43:14.249Z,3.20
2022-11-10T21:45:42.144Z,3.10
2022-11-10T21:48:11.584Z,3.30
2022-11-10T21:50:39.532Z,3.23
2022-11-10T21:53:08.106Z,3.20
2022-11-10T21:55:36.006Z,3.30
2022-11-10T21:58:04.080Z,3.17
2022-11-10T22:00:31.940Z,3.40
2022-11-10T22:03:00.183Z,3.00
2022-11-10T22:05:29.410Z,3.40
2022-11-10T22:07:57.278Z,3.50
2022-11-10T22:10:42.605Z,3.47
2022-11-10T22:13:34.051Z,3.10
2022-11-10T22:16:19.679Z,3.60
2022-11-10T22:18:47.749Z,3.70
2022-11-10T22:21:19.311Z,3.60
2022-11-10T22:24:04.768Z,3.50
2022-11-10T22:26:32.597Z,3.17
2022-11-10T22:29:00.432Z,3.50
2022-11-10T22:31:28.726Z,3.70
2022-11-10T22:33:56.595Z,3.30
2022-11-10T22:36:25.847Z,3.20
2022-11-10T22:38:53.781Z,3.50
2022-11-10T22:41:39.257Z,3.80
2022-11-10T22:44:07.880Z,4.07
2022-11-10T22:46:37.719Z,3.53
2022-11-10T22:49:07.954Z,3.47
2022-11-10T22:51:38.962Z,3.77
2022-11-10T22:54:09.879Z,4.33
2022-11-10T22:56:37.846Z,3.47
2022-11-10T22:59:06.097Z,3.90
2022-11-10T23:01:34.926Z,3.63
2022-11-10T23:04:03.228Z,3.77
2022-11-10T23:06:32.150Z,3.67
2022-11-10T23:09:01.682Z,4.27
2022-11-10T23:11:31.162Z,3.63
2022-11-10T23:13:59.222Z,4.10
2022-11-10T23:16:28.670Z,4.27
2022-11-10T23:18:57.907Z,4.37
2022-11-10T23:21:29.214Z,4.47
2022-11-10T23:23:57.663Z,4.10
2022-11-10T23:26:29.933Z,3.90
2022-11-10T23:28:57.866Z,4.40
2022-11-10T23:31:28.277Z,4.00
2022-11-10T23:33:57.568Z,4.23
2022-11-10T23:36:27.319Z,3.80
2022-11-10T23:38:55.996Z,3.67
2022-11-10T23:41:25.994Z,4.03
2022-11-10T23:43:55.275Z,4.17
2022-11-10T23:46:23.416Z,4.70
2022-11-10T23:48:51.396Z,3.93
2022-11-10T23:51:19.217Z,4.03
2022-11-10T23:53:47.054Z,4.50
2022-11-10T23:56:17.728Z,4.70
2022-11-10T23:58:45.605Z,4.53
